sensor_id;sensor_type;location;lat;lon;timestamp;temperature;humidity
54485;DHT22;45006;56.958;24.166;2023-02-26T00:01:23;22.40;61.90
54485;DHT22;45006;56.958;24.166;2023-02-26T00:03:53;22.40;62.00
54485;DHT22;45006;56.958;24.166;2023-02-26T00:06:22;22.40;62.10
54485;DHT22;45006;56.958;24.166;2023-02-26T00:08:50;22.40;62.00
54485;DHT22;45006;56.958;24.166;2023-02-26T00:11:18;22.40;62.10
54485;DHT22;45006;56.958;24.166;2023-02-26T00:13:46;22.40;62.00
54485;DHT22;45006;56.958;24.166;2023-02-26T00:16:34;22.40;62.10
54485;DHT22;45006;56.958;24.166;2023-02-26T00:19:05;22.40;62.00
54485;DHT22;45006;56.958;24.166;2023-02-26T00:21:34;22.40;62.10
54485;DHT22;45006;56.958;24.166;2023-02-26T00:24:01;22.40;62.20
54485;DHT22;45006;56.958;24.166;2023-02-26T00:26:30;22.40;62.30
54485;DHT22;45006;56.958;24.166;2023-02-26T00:28:58;22.40;62.40
54485;DHT22;45006;56.958;24.166;2023-02-26T00:31:25;22.40;62.40
54485;DHT22;45006;56.958;24.166;2023-02-26T00:33:54;22.40;62.30
54485;DHT22;45006;56.958;24.166;2023-02-26T00:36:22;22.50;62.60
54485;DHT22;45006;56.958;24.166;2023-02-26T00:41:38;22.40;62.30
54485;DHT22;45006;56.958;24.166;2023-02-26T00:44:05;22.40;62.30
54485;DHT22;45006;56.958;24.166;2023-02-26T00:46:45;22.50;62.40
54485;DHT22;45006;56.958;24.166;2023-02-26T00:52:04;22.40;62.20
54485;DHT22;45006;56.958;24.166;2023-02-26T00:54:34;22.50;62.50
54485;DHT22;45006;56.958;24.166;2023-02-26T00:57:02;22.40;62.50
54485;DHT22;45006;56.958;24.166;2023-02-26T00:59:31;22.50;62.50
54485;DHT22;45006;56.958;24.166;2023-02-26T01:01:58;22.50;62.50
54485;DHT22;45006;56.958;24.166;2023-02-26T01:04:25;22.50;62.50
54485;DHT22;45006;56.958;24.166;2023-02-26T01:06:54;22.50;62.70
54485;DHT22;45006;56.958;24.166;2023-02-26T01:09:32;22.50;62.60
54485;DHT22;45006;56.958;24.166;2023-02-26T01:12:10;22.50;62.50
54485;DHT22;45006;56.958;24.166;2023-02-26T01:14:39;22.50;62.40
54485;DHT22;45006;56.958;24.166;2023-02-26T01:20:01;22.40;62.20
54485;DHT22;45006;56.958;24.166;2023-02-26T01:22:36;22.40;62.20
54485;DHT22;45006;56.958;24.166;2023-02-26T01:25:08;22.40;62.40
54485;DHT22;45006;56.958;24.166;2023-02-26T01:27:35;22.50;62.50
54485;DHT22;45006;56.958;24.166;2023-02-26T01:30:04;22.50;62.40
54485;DHT22;45006;56.958;24.166;2023-02-26T01:32:41;22.50;62.20
54485;DHT22;45006;56.958;24.166;2023-02-26T01:41:30;22.50;63.00
54485;DHT22;45006;56.958;24.166;2023-02-26T01:49:16;22.50;62.90
54485;DHT22;45006;56.958;24.166;2023-02-26T01:54:20;22.50;62.80
54485;DHT22;45006;56.958;24.166;2023-02-26T01:56:51;22.40;62.30
54485;DHT22;45006;56.958;24.166;2023-02-26T01:59:20;22.50;62.40
54485;DHT22;45006;56.958;24.166;2023-02-26T02:01:55;22.40;62.30
54485;DHT22;45006;56.958;24.166;2023-02-26T02:04:24;22.40;62.40
54485;DHT22;45006;56.958;24.166;2023-02-26T02:06:53;22.40;62.30
54485;DHT22;45006;56.958;24.166;2023-02-26T02:09:21;22.40;62.30
54485;DHT22;45006;56.958;24.166;2023-02-26T02:15:20;22.50;62.70
54485;DHT22;45006;56.958;24.166;2023-02-26T02:18:10;22.50;62.70
54485;DHT22;45006;56.958;24.166;2023-02-26T02:20:51;22.50;62.80
54485;DHT22;45006;56.958;24.166;2023-02-26T02:23:21;22.50;62.70
54485;DHT22;45006;56.958;24.166;2023-02-26T02:29:02;22.50;62.40
54485;DHT22;45006;56.958;24.166;2023-02-26T02:31:45;22.50;62.30
54485;DHT22;45006;56.958;24.166;2023-02-26T02:34:20;22.50;62.30
54485;DHT22;45006;56.958;24.166;2023-02-26T02:40:00;22.50;62.50
54485;DHT22;45006;56.958;24.166;2023-02-26T02:42:51;22.50;62.30
54485;DHT22;45006;56.958;24.166;2023-02-26T02:45:49;22.50;62.20
54485;DHT22;45006;56.958;24.166;2023-02-26T02:49:28;22.50;62.10
54485;DHT22;45006;56.958;24.166;2023-02-26T02:51:32;22.40;62.00
54485;DHT22;45006;56.958;24.166;2023-02-26T02:56:57;22.50;62.40
54485;DHT22;45006;56.958;24.166;2023-02-26T02:59:36;22.50;62.40
54485;DHT22;45006;56.958;24.166;2023-02-26T03:02:28;22.50;62.40
54485;DHT22;45006;56.958;24.166;2023-02-26T03:04:57;22.50;62.30
54485;DHT22;45006;56.958;24.166;2023-02-26T03:07:24;22.50;62.30
54485;DHT22;45006;56.958;24.166;2023-02-26T03:09:51;22.50;62.30
54485;DHT22;45006;56.958;24.166;2023-02-26T03:12:18;22.50;62.40
54485;DHT22;45006;56.958;24.166;2023-02-26T03:14:45;22.50;62.30
54485;DHT22;45006;56.958;24.166;2023-02-26T03:20:24;22.50;62.30
54485;DHT22;45006;56.958;24.166;2023-02-26T03:23:04;22.50;62.20
54485;DHT22;45006;56.958;24.166;2023-02-26T03:28:40;22.50;62.10
54485;DHT22;45006;56.958;24.166;2023-02-26T03:31:25;22.50;62.20
54485;DHT22;45006;56.958;24.166;2023-02-26T03:34:03;22.50;62.10
54485;DHT22;45006;56.958;24.166;2023-02-26T03:36:40;22.50;62.00
54485;DHT22;45006;56.958;24.166;2023-02-26T03:39:15;22.50;61.90
54485;DHT22;45006;56.958;24.166;2023-02-26T03:42:01;22.50;62.00
54485;DHT22;45006;56.958;24.166;2023-02-26T03:44:43;22.50;62.00
54485;DHT22;45006;56.958;24.166;2023-02-26T03:47:14;22.50;61.90
54485;DHT22;45006;56.958;24.166;2023-02-26T03:49:45;22.50;61.90
54485;DHT22;45006;56.958;24.166;2023-02-26T03:52:13;22.50;61.90
54485;DHT22;45006;56.958;24.166;2023-02-26T03:54:48;22.50;62.10
54485;DHT22;45006;56.958;24.166;2023-02-26T03:57:16;22.50;61.90
54485;DHT22;45006;56.958;24.166;2023-02-26T03:59:43;22.50;61.70
54485;DHT22;45006;56.958;24.166;2023-02-26T04:02:16;22.50;61.80
54485;DHT22;45006;56.958;24.166;2023-02-26T04:04:56;22.50;62.00
54485;DHT22;45006;56.958;24.166;2023-02-26T04:07:25;22.50;61.90
54485;DHT22;45006;56.958;24.166;2023-02-26T04:09:52;22.50;61.80
54485;DHT22;45006;56.958;24.166;2023-02-26T04:12:25;22.50;61.70
54485;DHT22;45006;56.958;24.166;2023-02-26T04:14:52;22.50;61.70
54485;DHT22;45006;56.958;24.166;2023-02-26T04:17:19;22.50;61.70
54485;DHT22;45006;56.958;24.166;2023-02-26T04:19:46;22.50;61.60
54485;DHT22;45006;56.958;24.166;2023-02-26T04:22:14;22.50;61.60
54485;DHT22;45006;56.958;24.166;2023-02-26T04:24:41;22.50;61.60
54485;DHT22;45006;56.958;24.166;2023-02-26T04:27:08;22.50;62.30
54485;DHT22;45006;56.958;24.166;2023-02-26T04:29:35;22.50;61.60
54485;DHT22;45006;56.958;24.166;2023-02-26T04:32:03;22.50;61.30
54485;DHT22;45006;56.958;24.166;2023-02-26T04:34:30;22.50;61.20
54485;DHT22;45006;56.958;24.166;2023-02-26T04:36:57;22.50;61.30
54485;DHT22;45006;56.958;24.166;2023-02-26T04:39:24;22.50;61.50
54485;DHT22;45006;56.958;24.166;2023-02-26T04:41:50;22.50;61.30
54485;DHT22;45006;56.958;24.166;2023-02-26T04:44:17;22.50;61.20
54485;DHT22;45006;56.958;24.166;2023-02-26T04:46:47;22.50;61.20
54485;DHT22;45006;56.958;24.166;2023-02-26T04:49:14;22.50;61.10
54485;DHT22;45006;56.958;24.166;2023-02-26T04:51:43;22.50;61.10
54485;DHT22;45006;56.958;24.166;2023-02-26T04:54:10;22.50;61.00
54485;DHT22;45006;56.958;24.166;2023-02-26T04:56:37;22.50;61.00
54485;DHT22;45006;56.958;24.166;2023-02-26T04:59:05;22.50;61.10
54485;DHT22;45006;56.958;24.166;2023-02-26T05:01:34;22.50;61.00
54485;DHT22;45006;56.958;24.166;2023-02-26T05:04:01;22.50;61.10
54485;DHT22;45006;56.958;24.166;2023-02-26T05:06:28;22.50;61.00
54485;DHT22;45006;56.958;24.166;2023-02-26T05:08:55;22.50;61.00
54485;DHT22;45006;56.958;24.166;2023-02-26T05:11:22;22.50;61.00
54485;DHT22;45006;56.958;24.166;2023-02-26T05:13:49;22.50;61.10
54485;DHT22;45006;56.958;24.166;2023-02-26T05:16:16;22.50;60.90
54485;DHT22;45006;56.958;24.166;2023-02-26T05:18:43;22.50;60.80
54485;DHT22;45006;56.958;24.166;2023-02-26T05:21:10;22.50;61.50
54485;DHT22;45006;56.958;24.166;2023-02-26T05:23:37;22.50;61.20
54485;DHT22;45006;56.958;24.166;2023-02-26T05:26:04;22.50;61.10
54485;DHT22;45006;56.958;24.166;2023-02-26T05:28:31;22.50;61.20
54485;DHT22;45006;56.958;24.166;2023-02-26T05:30:59;22.50;61.20
54485;DHT22;45006;56.958;24.166;2023-02-26T05:33:26;22.50;61.30
54485;DHT22;45006;56.958;24.166;2023-02-26T05:35:53;22.50;61.20
54485;DHT22;45006;56.958;24.166;2023-02-26T05:38:20;22.50;61.20
54485;DHT22;45006;56.958;24.166;2023-02-26T05:40:47;22.50;61.30
54485;DHT22;45006;56.958;24.166;2023-02-26T05:43:14;22.50;61.10
54485;DHT22;45006;56.958;24.166;2023-02-26T05:45:41;22.50;60.90
54485;DHT22;45006;56.958;24.166;2023-02-26T05:48:08;22.50;61.20
54485;DHT22;45006;56.958;24.166;2023-02-26T05:50:36;22.50;60.90
54485;DHT22;45006;56.958;24.166;2023-02-26T05:53:03;22.50;61.20
54485;DHT22;45006;56.958;24.166;2023-02-26T05:55:30;22.50;61.20
54485;DHT22;45006;56.958;24.166;2023-02-26T05:57:57;22.50;61.10
54485;DHT22;45006;56.958;24.166;2023-02-26T06:00:24;22.50;61.10
54485;DHT22;45006;56.958;24.166;2023-02-26T06:02:51;22.50;61.20
54485;DHT22;45006;56.958;24.166;2023-02-26T06:05:18;22.50;61.20
54485;DHT22;45006;56.958;24.166;2023-02-26T06:07:45;22.50;61.20
54485;DHT22;45006;56.958;24.166;2023-02-26T06:10:13;22.50;61.10
54485;DHT22;45006;56.958;24.166;2023-02-26T06:12:40;22.50;61.00
54485;DHT22;45006;56.958;24.166;2023-02-26T06:15:07;22.50;61.20
54485;DHT22;45006;56.958;24.166;2023-02-26T06:17:35;22.50;60.90
54485;DHT22;45006;56.958;24.166;2023-02-26T06:20:05;22.50;60.80
54485;DHT22;45006;56.958;24.166;2023-02-26T06:22:32;22.50;60.80
54485;DHT22;45006;56.958;24.166;2023-02-26T06:24:59;22.50;60.90
54485;DHT22;45006;56.958;24.166;2023-02-26T06:27:26;22.50;60.70
54485;DHT22;45006;56.958;24.166;2023-02-26T06:29:53;22.50;60.70
54485;DHT22;45006;56.958;24.166;2023-02-26T06:32:19;22.50;60.80
54485;DHT22;45006;56.958;24.166;2023-02-26T06:34:46;22.50;60.80
54485;DHT22;45006;56.958;24.166;2023-02-26T06:37:13;22.50;60.90
54485;DHT22;45006;56.958;24.166;2023-02-26T06:39:41;22.50;60.90
54485;DHT22;45006;56.958;24.166;2023-02-26T06:42:08;22.50;60.70
54485;DHT22;45006;56.958;24.166;2023-02-26T06:44:36;22.50;61.10
54485;DHT22;45006;56.958;24.166;2023-02-26T06:47:03;22.50;61.20
54485;DHT22;45006;56.958;24.166;2023-02-26T06:49:30;22.50;61.20
54485;DHT22;45006;56.958;24.166;2023-02-26T06:51:58;22.50;61.20
54485;DHT22;45006;56.958;24.166;2023-02-26T06:54:25;22.50;61.30
54485;DHT22;45006;56.958;24.166;2023-02-26T06:56:51;22.50;61.40
54485;DHT22;45006;56.958;24.166;2023-02-26T06:59:19;22.50;61.50
54485;DHT22;45006;56.958;24.166;2023-02-26T07:01:46;22.50;61.50
54485;DHT22;45006;56.958;24.166;2023-02-26T07:04:12;22.50;61.70
54485;DHT22;45006;56.958;24.166;2023-02-26T07:06:39;22.50;61.70
54485;DHT22;45006;56.958;24.166;2023-02-26T07:09:07;22.50;61.80
54485;DHT22;45006;56.958;24.166;2023-02-26T07:11:35;22.50;61.90
54485;DHT22;45006;56.958;24.166;2023-02-26T07:14:02;22.50;62.00
54485;DHT22;45006;56.958;24.166;2023-02-26T07:16:29;22.50;62.20
54485;DHT22;45006;56.958;24.166;2023-02-26T07:18:56;22.50;62.20
54485;DHT22;45006;56.958;24.166;2023-02-26T07:21:23;22.50;62.10
54485;DHT22;45006;56.958;24.166;2023-02-26T07:23:50;22.50;62.20
54485;DHT22;45006;56.958;24.166;2023-02-26T07:26:16;22.50;62.20
54485;DHT22;45006;56.958;24.166;2023-02-26T07:28:43;22.60;62.30
54485;DHT22;45006;56.958;24.166;2023-02-26T07:31:10;22.50;61.90
54485;DHT22;45006;56.958;24.166;2023-02-26T07:33:38;22.50;61.50
54485;DHT22;45006;56.958;24.166;2023-02-26T07:36:05;22.50;61.00
54485;DHT22;45006;56.958;24.166;2023-02-26T07:38:32;22.50;60.70
54485;DHT22;45006;56.958;24.166;2023-02-26T07:40:59;22.50;60.90
54485;DHT22;45006;56.958;24.166;2023-02-26T07:43:26;22.50;60.40
54485;DHT22;45006;56.958;24.166;2023-02-26T07:45:53;22.50;60.50
54485;DHT22;45006;56.958;24.166;2023-02-26T07:48:20;22.50;60.60
54485;DHT22;45006;56.958;24.166;2023-02-26T07:50:50;22.50;60.30
54485;DHT22;45006;56.958;24.166;2023-02-26T07:53:21;22.50;60.00
54485;DHT22;45006;56.958;24.166;2023-02-26T07:55:48;22.40;60.00
54485;DHT22;45006;56.958;24.166;2023-02-26T07:58:17;22.50;60.00
54485;DHT22;45006;56.958;24.166;2023-02-26T08:00:44;22.50;60.00
54485;DHT22;45006;56.958;24.166;2023-02-26T08:03:13;22.50;60.00
54485;DHT22;45006;56.958;24.166;2023-02-26T08:05:41;22.50;59.60
54485;DHT22;45006;56.958;24.166;2023-02-26T08:08:08;22.50;59.90
54485;DHT22;45006;56.958;24.166;2023-02-26T08:10:35;22.50;59.50
54485;DHT22;45006;56.958;24.166;2023-02-26T08:13:02;22.50;59.70
54485;DHT22;45006;56.958;24.166;2023-02-26T08:15:28;22.50;59.50
54485;DHT22;45006;56.958;24.166;2023-02-26T08:17:55;22.50;59.50
54485;DHT22;45006;56.958;24.166;2023-02-26T08:20:23;22.50;59.40
54485;DHT22;45006;56.958;24.166;2023-02-26T08:22:50;22.40;59.20
54485;DHT22;45006;56.958;24.166;2023-02-26T08:25:17;22.40;59.20
54485;DHT22;45006;56.958;24.166;2023-02-26T08:27:44;22.40;59.20
54485;DHT22;45006;56.958;24.166;2023-02-26T08:30:11;22.40;59.00
54485;DHT22;45006;56.958;24.166;2023-02-26T08:32:38;22.40;59.90
54485;DHT22;45006;56.958;24.166;2023-02-26T08:35:09;22.40;59.40
54485;DHT22;45006;56.958;24.166;2023-02-26T08:37:36;22.40;59.30
54485;DHT22;45006;56.958;24.166;2023-02-26T08:40:05;22.40;59.10
54485;DHT22;45006;56.958;24.166;2023-02-26T08:42:32;22.40;59.10
54485;DHT22;45006;56.958;24.166;2023-02-26T08:45:00;22.40;59.30
54485;DHT22;45006;56.958;24.166;2023-02-26T08:47:27;22.40;59.30
54485;DHT22;45006;56.958;24.166;2023-02-26T08:49:55;22.40;59.10
54485;DHT22;45006;56.958;24.166;2023-02-26T08:52:25;22.40;59.00
54485;DHT22;45006;56.958;24.166;2023-02-26T08:54:51;22.40;58.90
54485;DHT22;45006;56.958;24.166;2023-02-26T08:57:18;22.40;59.00
54485;DHT22;45006;56.958;24.166;2023-02-26T08:59:45;22.40;59.30
54485;DHT22;45006;56.958;24.166;2023-02-26T09:02:13;22.40;58.80
54485;DHT22;45006;56.958;24.166;2023-02-26T09:04:40;22.40;58.60
54485;DHT22;45006;56.958;24.166;2023-02-26T09:07:07;22.40;57.20
54485;DHT22;45006;56.958;24.166;2023-02-26T09:09:33;22.50;65.90
54485;DHT22;45006;56.958;24.166;2023-02-26T09:12:00;22.40;65.30
54485;DHT22;45006;56.958;24.166;2023-02-26T09:14:27;22.50;64.50
54485;DHT22;45006;56.958;24.166;2023-02-26T09:16:55;22.50;64.30
54485;DHT22;45006;56.958;24.166;2023-02-26T09:19:23;22.50;63.70
54485;DHT22;45006;56.958;24.166;2023-02-26T09:21:50;22.50;64.40
54485;DHT22;45006;56.958;24.166;2023-02-26T09:24:17;22.40;66.00
54485;DHT22;45006;56.958;24.166;2023-02-26T09:26:45;22.50;69.60
54485;DHT22;45006;56.958;24.166;2023-02-26T09:29:12;22.50;70.70
54485;DHT22;45006;56.958;24.166;2023-02-26T09:31:40;22.50;79.60
54485;DHT22;45006;56.958;24.166;2023-02-26T09:34:07;22.50;80.30
54485;DHT22;45006;56.958;24.166;2023-02-26T09:36:37;22.50;79.40
54485;DHT22;45006;56.958;24.166;2023-02-26T09:39:05;22.60;80.00
54485;DHT22;45006;56.958;24.166;2023-02-26T09:41:42;22.60;81.60
54485;DHT22;45006;56.958;24.166;2023-02-26T09:44:15;22.60;80.90
54485;DHT22;45006;56.958;24.166;2023-02-26T09:47:00;22.60;80.90
54485;DHT22;45006;56.958;24.166;2023-02-26T09:49:49;22.60;81.90
54485;DHT22;45006;56.958;24.166;2023-02-26T09:58:02;22.60;82.20
54485;DHT22;45006;56.958;24.166;2023-02-26T10:14:19;22.60;81.40
54485;DHT22;45006;56.958;24.166;2023-02-26T10:16:52;22.60;82.10
54485;DHT22;45006;56.958;24.166;2023-02-26T10:19:25;22.60;83.00
54485;DHT22;45006;56.958;24.166;2023-02-26T10:21:57;22.60;83.50
54485;DHT22;45006;56.958;24.166;2023-02-26T10:24:38;22.60;84.00
54485;DHT22;45006;56.958;24.166;2023-02-26T10:27:15;22.60;84.20
54485;DHT22;45006;56.958;24.166;2023-02-26T10:29:50;22.60;83.60
54485;DHT22;45006;56.958;24.166;2023-02-26T10:32:40;22.60;83.20
54485;DHT22;45006;56.958;24.166;2023-02-26T10:35:15;22.60;83.50
54485;DHT22;45006;56.958;24.166;2023-02-26T10:37:46;22.60;83.80
54485;DHT22;45006;56.958;24.166;2023-02-26T10:40:25;22.50;84.80
54485;DHT22;45006;56.958;24.166;2023-02-26T10:46:14;22.60;79.90
54485;DHT22;45006;56.958;24.166;2023-02-26T10:48:54;22.60;78.70
54485;DHT22;45006;56.958;24.166;2023-02-26T10:51:33;22.60;77.70
54485;DHT22;45006;56.958;24.166;2023-02-26T10:54:04;22.60;76.50
54485;DHT22;45006;56.958;24.166;2023-02-26T10:56:36;22.60;76.20
54485;DHT22;45006;56.958;24.166;2023-02-26T10:59:04;22.60;76.00
54485;DHT22;45006;56.958;24.166;2023-02-26T11:01:33;22.60;75.60
54485;DHT22;45006;56.958;24.166;2023-02-26T11:04:12;22.60;75.20
54485;DHT22;45006;56.958;24.166;2023-02-26T11:06:57;22.60;74.90
54485;DHT22;45006;56.958;24.166;2023-02-26T11:09:33;22.60;74.70
54485;DHT22;45006;56.958;24.166;2023-02-26T11:14:33;22.60;74.20
54485;DHT22;45006;56.958;24.166;2023-02-26T11:17:14;22.60;74.00
54485;DHT22;45006;56.958;24.166;2023-02-26T11:19:58;22.60;73.30
54485;DHT22;45006;56.958;24.166;2023-02-26T11:22:29;22.60;73.00
54485;DHT22;45006;56.958;24.166;2023-02-26T11:25:02;22.60;72.80
54485;DHT22;45006;56.958;24.166;2023-02-26T11:27:31;22.60;72.70
54485;DHT22;45006;56.958;24.166;2023-02-26T11:30:14;22.60;72.30
54485;DHT22;45006;56.958;24.166;2023-02-26T11:32:44;22.60;72.30
54485;DHT22;45006;56.958;24.166;2023-02-26T11:35:17;22.60;72.20
54485;DHT22;45006;56.958;24.166;2023-02-26T11:37:48;22.60;72.00
54485;DHT22;45006;56.958;24.166;2023-02-26T11:40:23;22.60;71.90
54485;DHT22;45006;56.958;24.166;2023-02-26T11:42:54;22.60;72.00
54485;DHT22;45006;56.958;24.166;2023-02-26T11:45:24;22.60;72.20
54485;DHT22;45006;56.958;24.166;2023-02-26T11:48:05;22.60;72.20
54485;DHT22;45006;56.958;24.166;2023-02-26T11:50:45;22.60;72.00
54485;DHT22;45006;56.958;24.166;2023-02-26T11:53:25;22.60;71.90
54485;DHT22;45006;56.958;24.166;2023-02-26T11:56:11;22.70;71.90
54485;DHT22;45006;56.958;24.166;2023-02-26T11:58:42;22.60;71.90
54485;DHT22;45006;56.958;24.166;2023-02-26T12:01:13;22.60;71.80
54485;DHT22;45006;56.958;24.166;2023-02-26T12:03:47;22.60;71.60
54485;DHT22;45006;56.958;24.166;2023-02-26T12:06:21;22.70;71.70
54485;DHT22;45006;56.958;24.166;2023-02-26T12:08:50;22.70;71.70
54485;DHT22;45006;56.958;24.166;2023-02-26T12:11:43;22.70;71.60
54485;DHT22;45006;56.958;24.166;2023-02-26T12:17:26;22.70;71.50
54485;DHT22;45006;56.958;24.166;2023-02-26T12:20:19;22.70;71.50
54485;DHT22;45006;56.958;24.166;2023-02-26T12:43:10;22.60;71.20
54485;DHT22;45006;56.958;24.166;2023-02-26T13:18:44;22.60;71.10
54485;DHT22;45006;56.958;24.166;2023-02-26T13:21:21;22.60;71.20
54485;DHT22;45006;56.958;24.166;2023-02-26T13:24:14;22.60;71.20
54485;DHT22;45006;56.958;24.166;2023-02-26T13:26:46;22.60;71.10
54485;DHT22;45006;56.958;24.166;2023-02-26T13:29:35;22.60;71.00
54485;DHT22;45006;56.958;24.166;2023-02-26T13:32:09;22.70;71.10
54485;DHT22;45006;56.958;24.166;2023-02-26T13:34:55;22.60;71.00
54485;DHT22;45006;56.958;24.166;2023-02-26T13:45:51;22.60;71.00
54485;DHT22;45006;56.958;24.166;2023-02-26T13:48:41;22.60;70.90
54485;DHT22;45006;56.958;24.166;2023-02-26T13:51:35;22.60;70.90
54485;DHT22;45006;56.958;24.166;2023-02-26T13:54:08;22.60;70.80
54485;DHT22;45006;56.958;24.166;2023-02-26T13:59:23;22.60;70.90
54485;DHT22;45006;56.958;24.166;2023-02-26T14:01:53;22.60;70.70
54485;DHT22;45006;56.958;24.166;2023-02-26T14:06:49;22.60;71.30
54485;DHT22;45006;56.958;24.166;2023-02-26T14:14:25;22.60;70.50
54485;DHT22;45006;56.958;24.166;2023-02-26T14:19:41;22.60;70.50
54485;DHT22;45006;56.958;24.166;2023-02-26T14:22:32;22.60;70.50
54485;DHT22;45006;56.958;24.166;2023-02-26T14:25:02;22.60;70.30
54485;DHT22;45006;56.958;24.166;2023-02-26T14:27:41;22.60;70.20
54485;DHT22;45006;56.958;24.166;2023-02-26T14:35:43;22.60;70.30
54485;DHT22;45006;56.958;24.166;2023-02-26T14:40:54;22.60;70.20
54485;DHT22;45006;56.958;24.166;2023-02-26T14:43:49;22.60;70.10
54485;DHT22;45006;56.958;24.166;2023-02-26T14:46:18;22.60;70.10
54485;DHT22;45006;56.958;24.166;2023-02-26T14:48:45;22.60;69.90
54485;DHT22;45006;56.958;24.166;2023-02-26T14:59:35;22.60;70.10
54485;DHT22;45006;56.958;24.166;2023-02-26T15:02:24;22.60;70.30
54485;DHT22;45006;56.958;24.166;2023-02-26T15:05:12;22.60;70.30
54485;DHT22;45006;56.958;24.166;2023-02-26T15:08:06;22.60;70.30
54485;DHT22;45006;56.958;24.166;2023-02-26T15:24:28;22.50;70.40
54485;DHT22;45006;56.958;24.166;2023-02-26T15:26:59;22.50;70.30
54485;DHT22;45006;56.958;24.166;2023-02-26T15:29:33;22.50;70.20
54485;DHT22;45006;56.958;24.166;2023-02-26T15:34:46;22.50;70.30
54485;DHT22;45006;56.958;24.166;2023-02-26T15:37:23;22.50;70.30
54485;DHT22;45006;56.958;24.166;2023-02-26T15:39:52;22.50;70.40
54485;DHT22;45006;56.958;24.166;2023-02-26T15:42:28;22.50;70.60
54485;DHT22;45006;56.958;24.166;2023-02-26T15:44:59;22.50;70.80
54485;DHT22;45006;56.958;24.166;2023-02-26T15:47:29;22.50;71.30
54485;DHT22;45006;56.958;24.166;2023-02-26T15:49:57;22.50;70.70
54485;DHT22;45006;56.958;24.166;2023-02-26T15:52:26;22.50;70.90
54485;DHT22;45006;56.958;24.166;2023-02-26T15:54:56;22.50;70.80
54485;DHT22;45006;56.958;24.166;2023-02-26T15:57:25;22.50;70.80
54485;DHT22;45006;56.958;24.166;2023-02-26T16:00:06;22.50;71.00
54485;DHT22;45006;56.958;24.166;2023-02-26T16:02:36;22.50;70.90
54485;DHT22;45006;56.958;24.166;2023-02-26T16:05:03;22.50;71.30
54485;DHT22;45006;56.958;24.166;2023-02-26T16:07:30;22.50;70.90
54485;DHT22;45006;56.958;24.166;2023-02-26T16:10:05;22.50;70.90
54485;DHT22;45006;56.958;24.166;2023-02-26T16:12:35;22.50;70.80
54485;DHT22;45006;56.958;24.166;2023-02-26T16:15:10;22.50;70.80
54485;DHT22;45006;56.958;24.166;2023-02-26T16:17:43;22.50;70.90
54485;DHT22;45006;56.958;24.166;2023-02-26T16:20:15;22.50;70.80
54485;DHT22;45006;56.958;24.166;2023-02-26T16:22:47;22.50;70.70
54485;DHT22;45006;56.958;24.166;2023-02-26T16:25:29;22.50;70.80
54485;DHT22;45006;56.958;24.166;2023-02-26T16:28:03;22.50;71.00
54485;DHT22;45006;56.958;24.166;2023-02-26T16:30:36;22.40;71.00
54485;DHT22;45006;56.958;24.166;2023-02-26T16:33:08;22.50;70.80
54485;DHT22;45006;56.958;24.166;2023-02-26T16:35:45;22.40;70.80
54485;DHT22;45006;56.958;24.166;2023-02-26T16:38:28;22.40;70.90
54485;DHT22;45006;56.958;24.166;2023-02-26T16:41:05;22.40;70.90
54485;DHT22;45006;56.958;24.166;2023-02-26T16:46:48;22.40;71.10
54485;DHT22;45006;56.958;24.166;2023-02-26T16:51:47;22.40;71.10
54485;DHT22;45006;56.958;24.166;2023-02-26T16:54:24;22.40;71.10
54485;DHT22;45006;56.958;24.166;2023-02-26T16:56:58;22.40;71.00
54485;DHT22;45006;56.958;24.166;2023-02-26T16:59:30;22.40;71.20
54485;DHT22;45006;56.958;24.166;2023-02-26T17:02:19;22.40;71.30
54485;DHT22;45006;56.958;24.166;2023-02-26T17:04:53;22.40;71.20
54485;DHT22;45006;56.958;24.166;2023-02-26T17:07:30;22.40;71.20
54485;DHT22;45006;56.958;24.166;2023-02-26T17:10:07;22.40;71.20
54485;DHT22;45006;56.958;24.166;2023-02-26T17:12:50;22.40;71.40
54485;DHT22;45006;56.958;24.166;2023-02-26T17:15:30;22.40;71.20
54485;DHT22;45006;56.958;24.166;2023-02-26T17:17:57;22.40;71.20
54485;DHT22;45006;56.958;24.166;2023-02-26T17:20:26;22.30;71.10
54485;DHT22;45006;56.958;24.166;2023-02-26T17:22:55;22.30;71.20
54485;DHT22;45006;56.958;24.166;2023-02-26T17:25:32;22.30;71.30
54485;DHT22;45006;56.958;24.166;2023-02-26T17:28:01;22.40;71.30
54485;DHT22;45006;56.958;24.166;2023-02-26T17:30:28;22.30;71.20
54485;DHT22;45006;56.958;24.166;2023-02-26T17:33:00;22.30;71.30
54485;DHT22;45006;56.958;24.166;2023-02-26T17:35:31;22.30;71.30
54485;DHT22;45006;56.958;24.166;2023-02-26T17:38:00;22.40;71.40
54485;DHT22;45006;56.958;24.166;2023-02-26T17:40:30;22.30;71.40
54485;DHT22;45006;56.958;24.166;2023-02-26T17:42:59;22.30;71.20
54485;DHT22;45006;56.958;24.166;2023-02-26T17:45:26;22.30;71.50
54485;DHT22;45006;56.958;24.166;2023-02-26T17:47:54;22.30;71.40
54485;DHT22;45006;56.958;24.166;2023-02-26T17:50:43;22.30;71.30
54485;DHT22;45006;56.958;24.166;2023-02-26T17:53:14;22.30;71.30
54485;DHT22;45006;56.958;24.166;2023-02-26T17:55:41;22.30;71.40
54485;DHT22;45006;56.958;24.166;2023-02-26T17:58:16;22.30;71.40
54485;DHT22;45006;56.958;24.166;2023-02-26T18:00:43;22.30;71.30
54485;DHT22;45006;56.958;24.166;2023-02-26T18:03:15;22.30;71.40
54485;DHT22;45006;56.958;24.166;2023-02-26T18:05:43;22.30;71.20
54485;DHT22;45006;56.958;24.166;2023-02-26T18:08:19;22.30;71.40
54485;DHT22;45006;56.958;24.166;2023-02-26T18:10:49;22.30;71.30
54485;DHT22;45006;56.958;24.166;2023-02-26T18:13:18;22.30;71.30
54485;DHT22;45006;56.958;24.166;2023-02-26T18:15:45;22.30;71.20
54485;DHT22;45006;56.958;24.166;2023-02-26T18:18:13;22.30;71.40
54485;DHT22;45006;56.958;24.166;2023-02-26T18:20:41;22.30;71.40
54485;DHT22;45006;56.958;24.166;2023-02-26T18:23:10;22.30;71.30
54485;DHT22;45006;56.958;24.166;2023-02-26T18:25:44;22.30;71.30
54485;DHT22;45006;56.958;24.166;2023-02-26T18:28:18;22.30;71.40
54485;DHT22;45006;56.958;24.166;2023-02-26T18:30:47;22.30;71.60
54485;DHT22;45006;56.958;24.166;2023-02-26T18:33:14;22.30;71.20
54485;DHT22;45006;56.958;24.166;2023-02-26T18:35:45;22.30;71.30
54485;DHT22;45006;56.958;24.166;2023-02-26T18:38:19;22.30;71.30
54485;DHT22;45006;56.958;24.166;2023-02-26T18:40:47;22.30;71.20
54485;DHT22;45006;56.958;24.166;2023-02-26T18:43:14;22.30;71.20
54485;DHT22;45006;56.958;24.166;2023-02-26T18:45:43;22.30;71.20